createdAt,value
2022-10-21T00:00:15.177Z,78.19
2022-10-21T00:03:04.433Z,78.17
2022-10-21T00:05:34.037Z,78.41
2022-10-21T00:08:04.750Z,78.13
2022-10-21T00:10:34.219Z,78.18
2022-10-21T00:13:03.572Z,77.52
2022-10-21T00:15:33.100Z,77.25
2022-10-21T00:18:02.315Z,76.61
2022-10-21T00:20:33.645Z,76.88
2022-10-21T00:23:06.761Z,76.52
2022-10-21T00:25:36.218Z,77.12
2022-10-21T00:28:05.472Z,76.34
2022-10-21T00:30:35.018Z,77.99
2022-10-21T00:33:04.236Z,77.30
2022-10-21T00:35:35.670Z,77.45
2022-10-21T00:38:06.376Z,77.78
2022-10-21T00:40:36.121Z,77.98
2022-10-21T00:43:05.406Z,77.33
2022-10-21T00:45:34.986Z,75.89
2022-10-21T00:48:06.988Z,77.68
2022-10-21T00:50:42.446Z,77.25
2022-10-21T00:53:16.102Z,76.91
2022-10-21T00:55:49.171Z,77.99
2022-10-21T00:58:21.198Z,77.21
2022-10-21T01:00:52.838Z,77.41
2022-10-21T01:03:22.364Z,77.03
2022-10-21T01:05:52.700Z,77.38
2022-10-21T01:08:24.223Z,76.95
2022-10-21T01:10:54.531Z,78.42
2022-10-21T01:13:33.631Z,76.39
2022-10-21T01:16:09.279Z,76.08
2022-10-21T01:18:48.730Z,76.68
2022-10-21T01:21:28.762Z,76.82
2022-10-21T01:24:31.129Z,76.46
2022-10-21T01:27:36.492Z,76.37
2022-10-21T01:30:18.499Z,77.36
2022-10-21T01:35:49.377Z,74.88
2022-10-21T01:38:25.543Z,76.17
2022-10-21T01:41:00.827Z,75.06
2022-10-21T01:43:38.588Z,76.30
2022-10-21T01:46:13.943Z,77.67
2022-10-21T01:48:50.918Z,75.83
2022-10-21T01:51:21.419Z,75.97
2022-10-21T01:53:56.574Z,75.69
2022-10-21T01:56:27.062Z,76.04
2022-10-21T01:58:57.320Z,76.33
2022-10-21T02:01:27.162Z,75.91
2022-10-21T02:04:02.197Z,75.83
2022-10-21T02:06:32.181Z,76.04
2022-10-21T02:09:02.185Z,76.09
2022-10-21T02:11:33.451Z,75.83
2022-10-21T02:14:07.663Z,75.92
2022-10-21T02:16:40.339Z,76.28
2022-10-21T02:19:17.291Z,76.80
2022-10-21T02:21:48.579Z,78.17
2022-10-21T02:24:23.114Z,76.66
2022-10-21T02:26:52.489Z,76.92
2022-10-21T02:29:27.760Z,76.38
2022-10-21T02:36:57.509Z,74.68
2022-10-21T02:39:33.866Z,76.54
2022-10-21T02:42:08.617Z,75.55
2022-10-21T02:44:37.962Z,75.17
2022-10-21T02:47:07.558Z,77.27
2022-10-21T02:49:36.713Z,75.64
2022-10-21T02:52:07.817Z,76.41
2022-10-21T02:54:37.114Z,77.12
2022-10-21T02:57:06.635Z,76.87
2022-10-21T03:04:58.114Z,76.65
2022-10-21T03:07:28.988Z,75.39
2022-10-21T03:09:58.226Z,76.37
2022-10-21T03:12:28.220Z,75.15
2022-10-21T03:14:57.563Z,75.56
2022-10-21T03:17:27.101Z,77.32
2022-10-21T03:19:56.242Z,75.00
2022-10-21T03:22:27.155Z,76.11
2022-10-21T03:24:56.390Z,75.80
2022-10-21T03:27:25.954Z,76.10
2022-10-21T03:29:55.193Z,75.98
2022-10-21T03:32:24.657Z,74.66
2022-10-21T03:34:54.038Z,76.46
2022-10-21T03:37:23.564Z,76.17
2022-10-21T03:50:23.754Z,77.09
2022-10-21T03:52:56.175Z,76.50
2022-10-21T03:55:25.417Z,76.66
2022-10-21T03:57:55.241Z,76.48
2022-10-21T04:00:27.091Z,76.07
2022-10-21T04:02:58.975Z,75.92
2022-10-21T04:05:29.615Z,76.62
2022-10-21T04:07:59.070Z,76.52
2022-10-21T04:10:28.487Z,75.68
2022-10-21T04:17:52.716Z,76.61
2022-10-21T04:20:22.443Z,76.45
2022-10-21T04:27:37.021Z,76.06
2022-10-21T04:30:07.293Z,76.24
2022-10-21T04:32:37.249Z,76.78
2022-10-21T04:35:07.415Z,76.65
2022-10-21T04:37:40.113Z,75.53
2022-10-21T04:49:59.012Z,77.24
2022-10-21T04:52:28.180Z,78.01
2022-10-21T04:54:57.705Z,76.89
2022-10-21T04:57:26.961Z,75.50
2022-10-21T04:59:56.445Z,76.00
2022-10-21T05:02:25.853Z,77.41
2022-10-21T05:04:55.351Z,75.49
2022-10-21T05:26:53.294Z,76.23
2022-10-21T05:29:22.614Z,77.16
2022-10-21T05:31:52.026Z,75.58
2022-10-21T05:34:21.313Z,76.34
2022-10-21T05:36:50.890Z,76.33
2022-10-21T05:39:20.119Z,76.34
2022-10-21T05:41:51.333Z,76.20
2022-10-21T05:53:59.019Z,76.61
2022-10-21T05:56:28.195Z,76.69
2022-10-21T05:58:59.157Z,75.84
2022-10-21T06:06:22.500Z,76.93
2022-10-21T06:08:51.744Z,76.63
2022-10-21T06:11:21.473Z,76.85
2022-10-21T06:13:50.885Z,76.23
2022-10-21T06:16:21.760Z,75.70
2022-10-21T06:18:51.072Z,74.71
2022-10-21T06:21:20.520Z,76.29
2022-10-21T06:23:49.862Z,75.23
2022-10-21T06:26:20.938Z,75.73
2022-10-21T06:28:51.036Z,75.19
2022-10-21T06:31:22.674Z,75.74
2022-10-21T06:33:51.941Z,74.43
2022-10-21T06:51:07.807Z,73.28
2022-10-21T06:53:39.362Z,73.39
2022-10-21T06:56:11.256Z,73.85
2022-10-21T06:58:43.399Z,73.48
2022-10-21T07:01:27.550Z,73.83
2022-10-21T07:04:03.856Z,73.23
2022-10-21T07:06:35.190Z,73.71
2022-10-21T07:09:04.832Z,73.52
2022-10-21T07:26:25.624Z,75.00
2022-10-21T07:33:39.505Z,74.04
2022-10-21T07:36:11.564Z,73.71
2022-10-21T07:38:46.616Z,73.73
2022-10-21T07:41:17.275Z,75.08
2022-10-21T07:48:20.385Z,73.91
2022-10-21T07:50:49.587Z,73.51
2022-10-21T07:58:13.472Z,72.84
2022-10-21T08:00:45.242Z,72.67
2022-10-21T08:13:04.156Z,71.75
2022-10-21T08:15:33.659Z,73.52
2022-10-21T08:18:03.146Z,72.45
2022-10-21T08:20:32.409Z,72.79
2022-10-21T08:23:01.858Z,73.18
2022-10-21T08:25:31.130Z,72.78
2022-10-21T08:28:00.560Z,72.67
2022-10-21T08:30:31.947Z,72.57
2022-10-21T08:37:55.837Z,72.82
2022-10-21T08:40:25.302Z,72.16
2022-10-21T08:42:54.851Z,71.47
2022-10-21T08:45:36.746Z,71.48
2022-10-21T08:53:05.933Z,70.93
2022-10-21T08:55:37.357Z,70.00
2022-10-21T08:58:07.315Z,70.40
2022-10-21T09:00:45.435Z,70.18
2022-10-21T09:03:24.626Z,70.02
2022-10-21T09:06:15.158Z,68.42
2022-10-21T09:14:06.235Z,69.50
2022-10-21T09:16:45.902Z,70.14
2022-10-21T09:19:31.106Z,69.21
2022-10-21T09:22:34.671Z,69.52
2022-10-21T09:25:18.550Z,69.81
2022-10-21T09:28:03.529Z,69.29
2022-10-21T09:30:33.644Z,70.83
2022-10-21T09:33:10.889Z,69.90
2022-10-21T09:40:35.155Z,68.95
2022-10-21T09:43:07.071Z,70.84
2022-10-21T09:45:38.958Z,69.42
2022-10-21T09:52:40.451Z,67.06
2022-10-21T09:55:14.757Z,67.88
2022-10-21T09:57:52.974Z,68.99
2022-10-21T10:10:31.942Z,68.45
2022-10-21T10:13:01.852Z,67.42
2022-10-21T10:15:36.703Z,67.04
2022-10-21T10:18:06.081Z,67.35
2022-10-21T10:20:35.491Z,67.34
2022-10-21T10:28:01.508Z,66.82
2022-10-21T10:30:38.234Z,68.01
2022-10-21T10:33:16.419Z,65.46
2022-10-21T10:35:50.743Z,66.21
2022-10-21T10:38:24.967Z,66.75
2022-10-21T10:40:57.744Z,68.44
2022-10-21T10:43:32.999Z,67.37
2022-10-21T10:46:05.534Z,66.92
2022-10-21T10:48:41.975Z,67.16
2022-10-21T10:51:26.515Z,66.69
2022-10-21T10:54:18.487Z,66.91
2022-10-21T10:56:53.716Z,67.71
2022-10-21T10:59:39.727Z,69.29
2022-10-21T11:02:28.705Z,69.27
2022-10-21T11:05:24.301Z,69.03
2022-10-21T11:07:55.295Z,69.45
2022-10-21T11:10:37.339Z,70.30
2022-10-21T11:13:12.888Z,69.75
2022-10-21T11:15:57.587Z,71.26
2022-10-21T11:18:34.754Z,70.94
2022-10-21T11:21:12.944Z,70.25
2022-10-21T11:24:06.558Z,70.12
2022-10-21T11:26:46.837Z,70.40
2022-10-21T11:29:29.375Z,70.31
2022-10-21T11:32:11.528Z,71.50
2022-10-21T11:34:54.553Z,71.50
2022-10-21T11:37:33.108Z,71.35
2022-10-21T11:40:14.383Z,71.24
2022-10-21T11:42:46.211Z,72.28
2022-10-21T11:45:31.685Z,74.05
2022-10-21T11:48:11.405Z,72.39
2022-10-21T11:50:51.543Z,71.70
2022-10-21T11:53:41.334Z,71.71
2022-10-21T11:56:22.461Z,71.94
2022-10-21T11:59:07.156Z,71.46
2022-10-21T12:01:49.127Z,72.74
2022-10-21T12:04:30.397Z,71.51
2022-10-21T12:07:12.482Z,72.30
2022-10-21T12:09:47.284Z,71.74
2022-10-21T12:12:19.114Z,72.31
2022-10-21T12:14:51.431Z,71.20
2022-10-21T12:17:23.329Z,72.46
2022-10-21T12:19:58.638Z,72.36
2022-10-21T12:22:30.706Z,72.71
2022-10-21T12:25:09.251Z,71.92
2022-10-21T12:27:44.587Z,72.58
2022-10-21T12:30:23.376Z,72.73
2022-10-21T12:33:13.970Z,72.70
2022-10-21T12:35:50.529Z,72.37
2022-10-21T12:38:26.871Z,73.64
2022-10-21T12:41:27.702Z,72.04
2022-10-21T12:44:14.372Z,72.65
2022-10-21T12:46:45.829Z,72.73
2022-10-21T12:49:28.132Z,72.72
2022-10-21T12:52:06.415Z,72.67
2022-10-21T12:54:43.506Z,71.73
2022-10-21T12:57:23.813Z,71.80
2022-10-21T13:00:13.645Z,72.30
2022-10-21T13:02:58.821Z,72.58
2022-10-21T13:06:02.279Z,72.23
2022-10-21T13:08:52.181Z,71.39
2022-10-21T13:11:24.803Z,72.56
2022-10-21T13:14:26.820Z,72.53
2022-10-21T13:17:32.368Z,72.85
2022-10-21T13:20:39.777Z,72.23
2022-10-21T13:23:37.679Z,73.51
2022-10-21T13:26:24.122Z,72.83
2022-10-21T13:29:10.328Z,72.49
2022-10-21T13:31:42.174Z,71.89
2022-10-21T13:34:29.509Z,72.85
2022-10-21T13:36:59.297Z,71.64
2022-10-21T13:39:34.528Z,70.71
2022-10-21T13:42:06.626Z,71.53
2022-10-21T13:44:39.545Z,70.74
2022-10-21T13:47:30.458Z,71.34
2022-10-21T13:50:12.780Z,71.98
2022-10-21T13:52:45.538Z,71.65
2022-10-21T13:55:23.207Z,70.76
2022-10-21T13:57:54.989Z,70.29
2022-10-21T14:00:26.657Z,71.34
2022-10-21T14:03:01.247Z,72.39
2022-10-21T14:05:34.568Z,71.54
2022-10-21T14:08:04.761Z,71.77
2022-10-21T14:10:35.774Z,70.92
2022-10-21T14:13:06.658Z,71.63
2022-10-21T14:15:43.099Z,71.33
2022-10-21T14:18:28.270Z,71.30
2022-10-21T14:21:00.063Z,71.24
2022-10-21T14:23:30.913Z,72.33
2022-10-21T14:26:09.764Z,71.16
2022-10-21T14:28:39.722Z,71.19
2022-10-21T14:31:12.631Z,71.13
2022-10-21T14:33:45.142Z,71.27
2022-10-21T14:36:19.928Z,71.26
2022-10-21T14:38:58.916Z,71.17
2022-10-21T14:41:33.819Z,71.31
2022-10-21T14:44:10.404Z,70.19
2022-10-21T14:46:45.358Z,70.52
2022-10-21T14:49:24.954Z,70.78
2022-10-21T14:52:00.796Z,71.75
2022-10-21T14:54:32.343Z,72.31
2022-10-21T14:57:04.545Z,72.15
2022-10-21T14:59:39.468Z,71.74
2022-10-21T15:02:18.535Z,71.99
2022-10-21T15:04:53.392Z,72.53
2022-10-21T15:07:30.183Z,73.03
2022-10-21T15:10:20.052Z,72.94
2022-10-21T15:12:52.882Z,73.30
2022-10-21T15:15:56.036Z,72.98
2022-10-21T15:18:30.299Z,73.19
2022-10-21T15:21:01.670Z,73.37
2022-10-21T15:23:35.447Z,72.58
2022-10-21T15:26:11.866Z,72.65
2022-10-21T15:28:43.527Z,72.81
2022-10-21T15:31:17.352Z,72.84
2022-10-21T15:33:49.171Z,72.86
2022-10-21T15:36:19.597Z,73.23
2022-10-21T15:38:50.182Z,72.80
2022-10-21T15:41:21.202Z,72.74
2022-10-21T15:43:59.868Z,72.98
2022-10-21T15:46:30.396Z,73.28
2022-10-21T15:49:07.071Z,74.23
2022-10-21T15:51:36.361Z,74.10
2022-10-21T15:54:06.090Z,74.19
2022-10-21T15:56:35.547Z,74.12
2022-10-21T15:59:06.801Z,73.58
2022-10-21T16:01:36.399Z,73.43
2022-10-21T16:04:06.160Z,73.30
2022-10-21T16:06:35.439Z,73.54
2022-10-21T16:09:05.170Z,73.76
2022-10-21T16:11:41.144Z,74.68
2022-10-21T16:14:18.724Z,73.83
2022-10-21T16:16:50.711Z,73.83
2022-10-21T16:19:20.465Z,73.72
2022-10-21T16:21:50.626Z,73.74
2022-10-21T16:24:20.614Z,73.16
2022-10-21T16:26:51.349Z,73.32
2022-10-21T16:29:23.699Z,73.07
2022-10-21T16:31:54.145Z,73.97
2022-10-21T16:34:23.819Z,73.63
2022-10-21T16:36:53.166Z,74.22
2022-10-21T16:39:25.476Z,73.44
2022-10-21T16:41:55.120Z,73.39
2022-10-21T16:44:26.302Z,72.94
2022-10-21T16:46:56.751Z,73.97
2022-10-21T16:49:28.373Z,74.39
2022-10-21T16:51:57.929Z,73.53
2022-10-21T16:54:27.694Z,74.06
2022-10-21T16:56:57.075Z,73.33
2022-10-21T16:59:27.993Z,73.58
2022-10-21T17:01:59.265Z,73.26
2022-10-21T17:04:29.459Z,73.46
2022-10-21T17:07:00.700Z,73.36
2022-10-21T17:09:30.603Z,73.86
2022-10-21T17:12:00.369Z,73.50
2022-10-21T17:14:31.680Z,74.29
2022-10-21T17:17:01.309Z,74.98
2022-10-21T17:19:30.957Z,74.09
2022-10-21T17:22:01.063Z,74.68
2022-10-21T17:24:30.862Z,74.44
2022-10-21T17:27:00.370Z,74.50
2022-10-21T17:29:31.355Z,75.05
2022-10-21T17:32:00.799Z,74.88
2022-10-21T17:34:32.477Z,75.15
2022-10-21T17:37:02.470Z,74.98
2022-10-21T17:39:32.202Z,74.86
2022-10-21T17:42:01.730Z,74.86
2022-10-21T17:44:33.443Z,74.67
2022-10-21T17:47:02.755Z,75.14
2022-10-21T17:49:33.506Z,75.32
2022-10-21T17:52:03.008Z,75.80
2022-10-21T17:54:36.095Z,75.57
2022-10-21T17:57:06.142Z,75.62
2022-10-21T17:59:37.143Z,74.39
2022-10-21T18:02:06.484Z,74.47
2022-10-21T18:04:36.086Z,74.72
2022-10-21T18:07:09.312Z,74.52
2022-10-21T18:09:39.706Z,74.28
2022-10-21T18:12:10.435Z,74.48
2022-10-21T18:14:41.772Z,74.77
2022-10-21T18:17:11.280Z,74.82
2022-10-21T18:19:41.055Z,75.13
2022-10-21T18:22:10.513Z,75.00
2022-10-21T18:24:40.502Z,75.41
2022-10-21T18:27:10.266Z,76.14
2022-10-21T18:29:41.484Z,76.40
2022-10-21T18:32:13.786Z,76.12
2022-10-21T18:34:44.794Z,75.98
2022-10-21T18:37:14.311Z,75.94
2022-10-21T18:39:44.028Z,75.72
2022-10-21T18:42:13.770Z,75.69
2022-10-21T18:44:45.378Z,75.04
2022-10-21T18:47:14.712Z,75.36
2022-10-21T18:49:44.677Z,75.72
2022-10-21T18:52:14.143Z,76.01
2022-10-21T18:54:46.123Z,75.81
2022-10-21T18:57:15.560Z,76.19
2022-10-21T18:59:47.998Z,76.92
2022-10-21T19:02:22.215Z,76.75
2022-10-21T19:04:55.941Z,76.33
2022-10-21T19:07:28.469Z,76.59
2022-10-21T19:09:58.193Z,77.96
2022-10-21T19:12:27.598Z,77.37
2022-10-21T19:14:58.667Z,77.44
2022-10-21T19:17:28.814Z,77.06
2022-10-21T19:19:59.586Z,76.54
2022-10-21T19:25:05.807Z,76.34
2022-10-21T19:27:35.129Z,76.83
2022-10-21T19:30:06.837Z,76.52
2022-10-21T19:32:36.905Z,76.41
2022-10-21T19:35:08.810Z,76.72
2022-10-21T19:37:38.544Z,76.39
2022-10-21T19:40:09.170Z,76.85
2022-10-21T19:42:41.309Z,76.55
2022-10-21T19:45:17.156Z,76.60
2022-10-21T19:47:47.089Z,76.33
2022-10-21T19:50:16.778Z,76.56
2022-10-21T19:52:46.112Z,77.03
2022-10-21T19:55:17.389Z,76.74
2022-10-21T19:57:47.159Z,76.49
2022-10-21T20:00:18.371Z,76.43
2022-10-21T20:02:50.288Z,76.38
2022-10-21T20:05:20.150Z,76.64
2022-10-21T20:07:49.475Z,77.34
2022-10-21T20:10:20.559Z,78.21
2022-10-21T20:12:49.926Z,77.80
2022-10-21T20:15:21.027Z,78.22
2022-10-21T20:17:50.487Z,78.05
2022-10-21T20:20:20.214Z,78.24
2022-10-21T20:22:49.536Z,78.39
2022-10-21T20:25:19.388Z,78.27
2022-10-21T20:27:48.860Z,77.82
2022-10-21T20:30:20.003Z,78.21
2022-10-21T20:32:52.896Z,78.06
2022-10-21T20:35:23.227Z,77.95
2022-10-21T20:37:53.186Z,78.37
2022-10-21T20:40:22.694Z,78.08
2022-10-21T20:42:52.145Z,77.98
2022-10-21T20:45:23.120Z,77.63
2022-10-21T20:47:52.601Z,78.32
2022-10-21T20:50:22.097Z,78.38
2022-10-21T20:52:51.486Z,78.64
2022-10-21T20:55:21.655Z,79.21
2022-10-21T20:57:50.867Z,79.03
2022-10-21T21:00:21.969Z,78.50
2022-10-21T21:02:51.501Z,78.22
2022-10-21T21:05:21.062Z,78.49
2022-10-21T21:07:50.356Z,78.34
2022-10-21T21:10:19.937Z,78.41
2022-10-21T21:12:49.226Z,78.34
2022-10-21T21:15:18.783Z,77.88
2022-10-21T21:17:51.329Z,78.06
2022-10-21T21:20:20.712Z,77.92
2022-10-21T21:22:49.955Z,78.58
2022-10-21T21:25:19.651Z,78.43
2022-10-21T21:27:48.898Z,78.45
2022-10-21T21:30:18.560Z,77.88
2022-10-21T21:32:55.659Z,78.86
2022-10-21T21:35:25.322Z,78.59
2022-10-21T21:37:54.572Z,78.65
2022-10-21T21:40:24.033Z,78.80
2022-10-21T21:42:53.391Z,78.96
2022-10-21T21:45:22.977Z,78.51
2022-10-21T21:47:52.284Z,79.06
2022-10-21T21:50:23.166Z,79.11
2022-10-21T21:52:52.395Z,78.98
2022-10-21T21:55:22.006Z,78.46
2022-10-21T21:57:51.409Z,78.43
2022-10-21T22:00:20.888Z,78.06
2022-10-21T22:02:50.069Z,77.90
2022-10-21T22:05:24.740Z,78.18
2022-10-21T22:07:56.871Z,78.25
2022-10-21T22:10:26.613Z,78.53
2022-10-21T22:12:56.930Z,78.63
2022-10-21T22:18:15.774Z,78.61
2022-10-21T22:20:46.468Z,78.84
2022-10-21T22:23:19.688Z,78.81
2022-10-21T22:25:50.132Z,78.75
2022-10-21T22:28:19.359Z,78.95
2022-10-21T22:30:57.065Z,78.97
2022-10-21T22:33:26.466Z,78.73
2022-10-21T22:35:55.939Z,78.90
2022-10-21T22:38:27.038Z,78.82
2022-10-21T22:40:57.688Z,78.99
2022-10-21T22:43:28.299Z,78.66
2022-10-21T22:46:04.997Z,78.76
2022-10-21T22:48:47.267Z,78.43
2022-10-21T22:51:16.954Z,79.01
2022-10-21T22:53:53.365Z,78.89
2022-10-21T22:56:25.910Z,79.17
2022-10-21T22:58:55.212Z,78.94
2022-10-21T23:01:28.868Z,79.24
2022-10-21T23:03:58.542Z,79.53
2022-10-21T23:06:28.120Z,79.45
2022-10-21T23:08:58.949Z,79.34
2022-10-21T23:11:28.926Z,79.50
2022-10-21T23:14:03.309Z,79.87
2022-10-21T23:16:37.348Z,79.58
2022-10-21T23:19:07.578Z,79.98
2022-10-21T23:21:37.805Z,79.79
2022-10-21T23:24:09.206Z,79.63
2022-10-21T23:26:38.887Z,79.45
2022-10-21T23:29:08.110Z,79.33
2022-10-21T23:31:38.025Z,79.41
2022-10-21T23:34:07.406Z,79.37
2022-10-21T23:36:36.897Z,79.61
2022-10-21T23:39:08.270Z,80.46
2022-10-21T23:41:37.870Z,80.26
2022-10-21T23:44:07.386Z,80.54
2022-10-21T23:46:37.074Z,80.39
2022-10-21T23:49:06.801Z,80.57
2022-10-21T23:51:36.557Z,80.71
2022-10-21T23:54:06.072Z,80.91
2022-10-21T23:56:36.982Z,80.20
2022-10-21T23:59:06.969Z,80.48
